Airfield :
LOGIN :

Register | Disclaimer

   EN    FR    IT 

 










Legend :    VFR   Marginal VFR   IFR   Intensive IFR   Very Intensive IFR
Visi :
Ceiling :
>= 8 km
>= 3000ft
5 to 8 km
1000 to 3000 ft
1500m to 5 km
500 to 1000 ft
800 to 1500m
200 to 500 ft
< 800m
< 200 ft
Symbols :   Thunderstorms  Fog  Heavy snow  Heavy precipitations  Wind > 20 kt
SIGMETs :     Misc.  Thunderstorms  Icing  Turbulence  Mountain Waves  Volcanic Ashes







- Airport Elevation : 1306 ft
- IATA code : ACH


LSZR - Alten Rhein

CURRENT METAR :
  • 230620Z VRB02KT 9000 BKN023 01/01 Q1034 NOSIG RMK A

EXPIRED METARs :
  • 230550Z AUTO 06002KT 2700 R10/1300U BR BKN022 00/00 Q1034 REFZDZ
  • 230520Z AUTO VRB02KT 1600 R10/0650U BR NCD M01/M01 Q1035 REFZDZ
  • 230450Z AUTO VRB02KT 2800 BR BKN019 01/01 Q1035 REFZDZ
  • 230420Z AUTO VRB02KT 6000 SCT021 M01/M01 Q1035
  • 230350Z AUTO VRB02KT 4700 BR NCD 00/00 Q1035
  • 230320Z AUTO VRB02KT 4200 BR NCD 01/01 Q1035

TAF AMD TAF LSZR
Valid from the 23 at 06:00 until the 23 at 15:00 UTC


230607Z 2306/2315 VRB03KT 4000 BR BKN020
BECMG 2307/2309 9999 FEW020
BECMG 2309/2311 CAVOK
ATIS : +41 71 858 51 66
No reported NOTAMs for that airfield.



MET'MAP, your aeronautical weather chart ! - Copyright ORBIFLY December 2007 - Disclaimer

ORBIFLY MET'MAP TEAM :

Programming & Development : Alexandra Zaïnal
Concept & Development : Baudouin d'Aumeries
Co-Development & Prog : Marc-Olivier Méhu
Technical & hardware support : Manuel Goepfert

Contact : metmap@orbifly.com




SOURCES & CREDITS :

   NOAA